EGQK 060850Z AUTO 24018KT 9999 // FEW051/// 11/07 Q1007
From batch tds/metars/production/2022/10/6/h09_m29_metars.cache.csv.gz
Observed at (about 1 hour ago)
Identifier EGQK
EGQK 060750Z AUTO 24016KT 9999 // FEW044/// 12/07 Q1006
From batch tds/metars/production/2022/10/6/h08_m23_metars.cache.csv.gz
Observed at (about 2 hours ago)
Identifier EGQK
EGQK 060720Z AUTO 23016KT 9999 // FEW047/// 11/06 Q1005
From batch tds/metars/production/2022/10/6/h07_m52_metars.cache.csv.gz
Observed at (about 2 hours ago)
Identifier EGQK
EGQK 060650Z AUTO 23014KT 9999 FEW048/// 11/06 Q1005
From batch tds/metars/production/2022/10/6/h07_m27_metars.cache.csv.gz
Observed at (about 3 hours ago)
Identifier EGQK
EGQK 060620Z AUTO 23014KT 9999 NCD 10/05 Q1005
From batch tds/metars/production/2022/10/6/h06_m49_metars.cache.csv.gz
Observed at (about 3 hours ago)
Identifier EGQK
EGQK 060550Z AUTO 22010KT 9999 FEW055/// 10/05 Q1005
From batch tds/metars/production/2022/10/6/h06_m20_metars.cache.csv.gz
Observed at (about 4 hours ago)
Identifier EGQK
EGQK 060520Z AUTO 24009KT 9999 NCD 10/06 Q1004
From batch tds/metars/production/2022/10/6/h05_m57_metars.cache.csv.gz
Observed at (about 4 hours ago)
Identifier EGQK
EGQK 060450Z AUTO 22010KT 9999 NCD 10/06 Q1004
From batch tds/metars/production/2022/10/6/h05_m21_metars.cache.csv.gz
Observed at (about 5 hours ago)
Identifier EGQK
EGQK 060420Z AUTO 23016KT 9999 // FEW047/// 11/06 Q1003
From batch tds/metars/production/2022/10/6/h04_m54_metars.cache.csv.gz
Observed at (about 5 hours ago)
Identifier EGQK
EGQK 060320Z AUTO 22017KT 9999 -RA OVC058/// 11/07 Q1003
From batch tds/metars/production/2022/10/6/h03_m51_metars.cache.csv.gz
Observed at (about 6 hours ago)
Identifier EGQK
EGQK 060250Z AUTO 22015G25KT 9999 OVC039/// 11/06 Q1003
From batch tds/metars/production/2022/10/6/h03_m20_metars.cache.csv.gz
Observed at (about 7 hours ago)
Identifier EGQK
EGQK 060220Z AUTO 20008KT 9999 FEW250/// 10/05 Q1003
From batch tds/metars/production/2022/10/6/h02_m52_metars.cache.csv.gz
Observed at (about 7 hours ago)
Identifier EGQK
EGQK 060150Z AUTO 22011KT 9999 FEW046/// 10/05 Q1003
From batch tds/metars/production/2022/10/6/h02_m26_metars.cache.csv.gz
Observed at (about 8 hours ago)
Identifier EGQK
EGQK 060120Z AUTO 21010KT 9999 FEW050/// 10/06 Q1004
From batch tds/metars/production/2022/10/6/h01_m51_metars.cache.csv.gz
Observed at (about 8 hours ago)
Identifier EGQK
EGQK 060050Z AUTO 23013KT 9999 FEW050/// 10/06 Q1004
From batch tds/metars/production/2022/10/6/h01_m22_metars.cache.csv.gz
Observed at (about 9 hours ago)
Identifier EGQK
EGQK 060020Z AUTO 24019KT 9999 // FEW036/// 11/06 Q1003
From batch tds/metars/production/2022/10/6/h00_m59_metars.cache.csv.gz
Observed at (about 9 hours ago)
Identifier EGQK
EGQK 052320Z AUTO 23015KT 9999 // FEW060/// 10/06 Q1003
From batch tds/metars/production/2022/10/5/h23_m58_metars.cache.csv.gz
Observed at (about 10 hours ago)
Identifier EGQK
EGQK 052120Z AUTO 23015KT 9999 OVC037/// 10/06 Q1001
From batch tds/metars/production/2022/10/5/h21_m56_metars.cache.csv.gz
Observed at (about 12 hours ago)
Identifier EGQK
EGQK 052050Z AUTO 23017KT 9999 FEW069/// 10/06 Q1001
From batch tds/metars/production/2022/10/5/h21_m27_metars.cache.csv.gz
Observed at (about 13 hours ago)
Identifier EGQK
EGQK 052020Z AUTO 24020KT 9999 SCT038/// 11/06 Q1000
From batch tds/metars/production/2022/10/5/h20_m57_metars.cache.csv.gz
Observed at (about 13 hours ago)
Identifier EGQK
EGQK 051920Z AUTO 22013KT 9999 OVC120/// 11/05 Q0999
From batch tds/metars/production/2022/10/5/h19_m49_metars.cache.csv.gz
Observed at (about 14 hours ago)
Identifier EGQK
EGQK 051820Z AUTO 23013KT 9999 FEW048/// 10/05 Q0999
From batch tds/metars/production/2022/10/5/h18_m53_metars.cache.csv.gz
Observed at (about 15 hours ago)
Identifier EGQK
EGQK 051750Z AUTO 22013KT 9999 FEW250/// 11/05 Q0998
From batch tds/metars/production/2022/10/5/h18_m26_metars.cache.csv.gz
Observed at (about 16 hours ago)
Identifier EGQK
EGQK 051720Z AUTO 23012KT 9999 NCD 11/05 Q0998
From batch tds/metars/production/2022/10/5/h17_m55_metars.cache.csv.gz
Observed at (about 16 hours ago)
Identifier EGQK
EGQK 051650Z AUTO 24014KT 9999 NCD 12/05 Q0997
From batch tds/metars/production/2022/10/5/h17_m26_metars.cache.csv.gz
Observed at (about 17 hours ago)
Identifier EGQK
EGQK 051620Z AUTO 23015KT 9999 FEW052/// 12/06 Q0997
From batch tds/metars/production/2022/10/5/h16_m57_metars.cache.csv.gz
Observed at (about 17 hours ago)
Identifier EGQK
EGQK 051450Z AUTO 24013KT 9999 BKN042/// 13/05 Q0996
From batch tds/metars/production/2022/10/5/h15_m24_metars.cache.csv.gz
Observed at (about 19 hours ago)
Identifier EGQK
EGQK 051420Z AUTO 23016KT 9999 NCD 13/05 Q0995
From batch tds/metars/production/2022/10/5/h14_m58_metars.cache.csv.gz
Observed at (about 19 hours ago)
Identifier EGQK
EGQK 051350Z AUTO 24016KT 9999 NCD 13/05 Q0995
From batch tds/metars/production/2022/10/5/h14_m27_metars.cache.csv.gz
Observed at (about 20 hours ago)
Identifier EGQK
EGQK 051320Z AUTO 24015KT 9999 NCD 13/07 Q0995
From batch tds/metars/production/2022/10/5/h13_m57_metars.cache.csv.gz
Observed at (about 20 hours ago)
Identifier EGQK
EGQK 051250Z AUTO 23015KT 9999 FEW130/// 13/07 Q0995
From batch tds/metars/production/2022/10/5/h13_m28_metars.cache.csv.gz
Observed at (about 21 hours ago)
Identifier EGQK
EGQK 051220Z AUTO 23014KT 9999 NCD 12/07 Q0995
From batch tds/metars/production/2022/10/5/h12_m57_metars.cache.csv.gz
Observed at (about 21 hours ago)
Identifier EGQK
EGQK 051150Z AUTO 25013KT 9999 NCD 12/07 Q0995
From batch tds/metars/production/2022/10/5/h12_m29_metars.cache.csv.gz
Observed at (about 22 hours ago)
Identifier EGQK
EGQK 051120Z AUTO 22010KT 9999 FEW140/// 13/08 Q0995
From batch tds/metars/production/2022/10/5/h11_m56_metars.cache.csv.gz
Observed at (about 22 hours ago)
Identifier EGQK
EGQK 051050Z AUTO 23008KT 9999 SCT130/// 12/08 Q0995
From batch tds/metars/production/2022/10/5/h11_m28_metars.cache.csv.gz
Observed at (about 23 hours ago)
Identifier EGQK
EGQK 051020Z AUTO 22008KT 9999 NCD 11/08 Q0994
From batch tds/metars/production/2022/10/5/h10_m55_metars.cache.csv.gz
Observed at (about 23 hours ago)
Identifier EGQK
EGQK 050950Z AUTO 24007KT 9999 NCD 10/08 Q0994
From batch tds/metars/production/2022/10/5/h10_m28_metars.cache.csv.gz
Observed at (about 24 hours ago)
Identifier EGQK
talk